createdAt,value
2024-03-16T00:01:51.100Z,101201.07
2024-03-16T00:04:21.189Z,101200.27
2024-03-16T00:06:51.294Z,101198.75
2024-03-16T00:09:21.874Z,101196.70
2024-03-16T00:11:51.848Z,101193.32
2024-03-16T00:14:21.908Z,101200.54
2024-03-16T00:16:52.029Z,101200.96
2024-03-16T00:19:22.167Z,101199.51
2024-03-16T00:21:52.281Z,101204.52
2024-03-16T00:24:22.521Z,101207.89
2024-03-16T00:26:52.537Z,101207.27
2024-03-16T00:29:23.232Z,101208.15
2024-03-16T00:31:53.373Z,101202.74
2024-03-16T00:34:23.464Z,101202.38
2024-03-16T00:36:53.627Z,101201.09
2024-03-16T00:39:25.084Z,101198.18
2024-03-16T00:41:55.949Z,101197.08
2024-03-16T00:44:25.999Z,101195.77
2024-03-16T00:46:56.136Z,101195.08
2024-03-16T00:49:26.285Z,101191.48
2024-03-16T00:51:56.538Z,101196.07
2024-03-16T00:54:26.651Z,101190.64
2024-03-16T00:56:57.316Z,101193.80
2024-03-16T00:59:29.522Z,101185.38
2024-03-16T01:01:59.672Z,101184.17
2024-03-16T01:04:30.132Z,101184.69
2024-03-16T01:07:00.213Z,101182.55
2024-03-16T01:09:30.859Z,101178.62
2024-03-16T01:12:00.959Z,101174.72
2024-03-16T01:14:31.150Z,101171.15
2024-03-16T01:17:01.243Z,101171.11
2024-03-16T01:19:31.322Z,101167.98
2024-03-16T01:22:01.814Z,101168.36
2024-03-16T01:24:32.258Z,101169.92
2024-03-16T01:27:02.926Z,101167.46
2024-03-16T01:29:34.066Z,101172.36
2024-03-16T01:32:06.642Z,101169.09
2024-03-16T01:34:36.784Z,101168.77
2024-03-16T01:37:07.052Z,101166.91
2024-03-16T01:39:37.069Z,101170.77
2024-03-16T01:42:07.506Z,101173.69
2024-03-16T01:44:37.598Z,101175.45
2024-03-16T01:47:09.632Z,101178.59
2024-03-16T01:49:39.656Z,101183.45
2024-03-16T01:52:09.700Z,101181.03
2024-03-16T01:54:39.873Z,101187.34
2024-03-16T01:57:09.910Z,101186.88
2024-03-16T01:59:39.939Z,101186.90
2024-03-16T02:02:11.649Z,101183.12
2024-03-16T02:04:41.923Z,101183.80
2024-03-16T02:07:12.899Z,101181.09
2024-03-16T02:09:43.798Z,101180.34
2024-03-16T02:12:14.440Z,101182.54
2024-03-16T02:14:44.499Z,101185.34
2024-03-16T02:17:14.559Z,101187.13
2024-03-16T02:19:44.689Z,101186.25
2024-03-16T02:22:14.683Z,101183.57
2024-03-16T02:24:44.804Z,101183.77
2024-03-16T02:27:14.907Z,101185.65
2024-03-16T02:29:45.080Z,101184.77
2024-03-16T02:32:15.776Z,101186.77
2024-03-16T02:34:46.318Z,101190.48
2024-03-16T02:37:16.543Z,101185.84
2024-03-16T02:39:47.011Z,101183.48
2024-03-16T02:42:18.012Z,101180.85
2024-03-16T02:44:48.066Z,101180.34
2024-03-16T02:47:18.113Z,101180.69
2024-03-16T02:49:50.597Z,101181.90
2024-03-16T02:52:20.669Z,101184.00
2024-03-16T02:54:50.779Z,101179.02
2024-03-16T02:57:20.846Z,101179.69
2024-03-16T02:59:50.904Z,101178.35
2024-03-16T03:02:24.659Z,101181.04
2024-03-16T03:04:55.122Z,101181.14
2024-03-16T03:07:25.148Z,101182.69
2024-03-16T03:09:55.260Z,101182.52
2024-03-16T03:12:25.961Z,101183.08
2024-03-16T03:14:56.158Z,101179.40
2024-03-16T03:17:26.441Z,101177.80
2024-03-16T03:19:56.495Z,101177.71
2024-03-16T03:22:26.491Z,101180.58
2024-03-16T03:24:56.596Z,101180.01
2024-03-16T03:27:27.319Z,101185.28
2024-03-16T03:29:57.538Z,101186.76
2024-03-16T03:32:27.647Z,101192.65
2024-03-16T03:34:57.748Z,101193.64
2024-03-16T03:37:27.826Z,101195.85
2024-03-16T03:39:58.375Z,101192.50
2024-03-16T03:42:31.042Z,101191.64
2024-03-16T03:45:25.901Z,101192.42
2024-03-16T03:48:04.565Z,101200.08
2024-03-16T03:50:35.066Z,101197.02
2024-03-16T03:53:06.809Z,101194.49
2024-03-16T03:55:36.837Z,101193.73
2024-03-16T03:58:06.970Z,101199.60
2024-03-16T04:00:37.032Z,101204.95
2024-03-16T04:03:08.014Z,101204.41
2024-03-16T04:05:38.091Z,101208.11
2024-03-16T04:08:08.319Z,101209.15
2024-03-16T04:10:38.443Z,101214.60
2024-03-16T04:13:08.666Z,101216.36
2024-03-16T04:15:38.881Z,101226.68
2024-03-16T04:18:09.000Z,101228.07
2024-03-16T04:20:39.915Z,101231.91
2024-03-16T04:23:10.377Z,101230.34
2024-03-16T04:25:40.400Z,101231.00
2024-03-16T04:28:13.023Z,101236.84
2024-03-16T04:30:43.158Z,101239.89
2024-03-16T04:33:13.905Z,101238.80
2024-03-16T04:35:44.126Z,101241.36
2024-03-16T04:38:15.022Z,101240.80
2024-03-16T04:40:45.134Z,101240.97
2024-03-16T04:43:15.284Z,101244.41
2024-03-16T04:45:48.977Z,101246.00
2024-03-16T04:48:19.392Z,101245.78
2024-03-16T04:50:49.417Z,101247.52
2024-03-16T04:53:20.466Z,101250.64
2024-03-16T04:55:50.421Z,101248.81
2024-03-16T04:58:20.384Z,101251.81
2024-03-16T05:00:50.267Z,101250.90
2024-03-16T05:03:22.105Z,101245.94
2024-03-16T05:05:53.201Z,101251.83
2024-03-16T05:08:23.512Z,101253.33
2024-03-16T05:10:54.601Z,101247.52
2024-03-16T05:13:24.526Z,101248.11
2024-03-16T05:15:54.137Z,101250.85
2024-03-16T05:18:23.878Z,101251.29
2024-03-16T05:20:54.496Z,101254.05
2024-03-16T05:23:23.981Z,101252.29
2024-03-16T05:25:54.601Z,101251.49
2024-03-16T05:28:27.736Z,101252.58
2024-03-16T05:30:57.964Z,101246.08
2024-03-16T05:33:27.822Z,101252.47
2024-03-16T05:35:59.023Z,101247.67
2024-03-16T05:38:29.255Z,101242.48
2024-03-16T05:40:59.922Z,101243.00
2024-03-16T05:43:29.922Z,101244.02
2024-03-16T05:45:59.777Z,101243.33
2024-03-16T05:48:30.099Z,101243.08
2024-03-16T05:51:01.147Z,101247.91
2024-03-16T05:53:31.173Z,101244.34
2024-03-16T05:56:02.040Z,101245.54
2024-03-16T05:58:34.199Z,101244.92
2024-03-16T06:01:05.717Z,101246.05
2024-03-16T06:03:36.080Z,101250.42
2024-03-16T06:06:06.473Z,101248.14
2024-03-16T06:08:38.052Z,101249.00
2024-03-16T06:11:09.322Z,101250.13
2024-03-16T06:13:39.383Z,101250.44
2024-03-16T06:16:09.621Z,101250.73
2024-03-16T06:18:41.836Z,101255.77
2024-03-16T06:21:12.194Z,101249.21
2024-03-16T06:23:42.255Z,101259.34
2024-03-16T06:26:18.428Z,101261.14
2024-03-16T06:28:56.013Z,101261.40
2024-03-16T06:31:33.098Z,101261.39
2024-03-16T06:34:06.213Z,101262.38
2024-03-16T06:36:37.240Z,101264.05
2024-03-16T06:39:12.598Z,101260.36
2024-03-16T06:41:43.079Z,101264.23
2024-03-16T06:44:13.130Z,101265.86
2024-03-16T06:46:43.205Z,101260.66
2024-03-16T06:49:17.634Z,101262.58
2024-03-16T06:51:47.728Z,101265.27
2024-03-16T06:54:17.918Z,101265.23
2024-03-16T06:56:47.912Z,101263.57
2024-03-16T06:59:18.196Z,101261.66
2024-03-16T07:01:48.314Z,101267.35
2024-03-16T07:04:18.487Z,101271.00
2024-03-16T07:06:48.692Z,101274.27
2024-03-16T07:09:20.053Z,101278.14
2024-03-16T07:11:50.579Z,101278.39
2024-03-16T07:14:20.738Z,101283.85
2024-03-16T07:16:51.116Z,101285.36
2024-03-16T07:19:24.483Z,101286.65
2024-03-16T07:21:54.669Z,101286.36
2024-03-16T07:24:24.763Z,101282.20
2024-03-16T07:26:55.136Z,101279.72
2024-03-16T07:29:26.322Z,101276.20
2024-03-16T07:31:56.890Z,101277.75
2024-03-16T07:34:27.106Z,101280.29
2024-03-16T07:37:00.090Z,101282.48
2024-03-16T07:39:30.433Z,101279.84
2024-03-16T07:42:00.902Z,101281.73
2024-03-16T07:44:32.491Z,101283.55
2024-03-16T07:47:02.543Z,101284.98
2024-03-16T07:49:33.098Z,101288.64
2024-03-16T07:52:03.968Z,101285.60
2024-03-16T07:54:34.082Z,101281.92
2024-03-16T07:57:04.173Z,101281.61
2024-03-16T07:59:34.136Z,101280.16
2024-03-16T08:02:04.230Z,101279.91
2024-03-16T08:04:36.328Z,101276.66
2024-03-16T08:07:06.612Z,101282.50
2024-03-16T08:09:37.327Z,101277.30
2024-03-16T08:12:07.697Z,101272.83
2024-03-16T08:14:37.729Z,101269.45
2024-03-16T08:17:08.608Z,101271.15
2024-03-16T08:19:40.131Z,101269.38
2024-03-16T08:22:10.388Z,101269.33
2024-03-16T08:24:40.681Z,101272.55
2024-03-16T08:27:10.700Z,101269.54
2024-03-16T08:29:40.768Z,101267.60
2024-03-16T08:32:13.232Z,101267.02
2024-03-16T08:34:43.276Z,101265.73
2024-03-16T08:37:15.101Z,101265.58
2024-03-16T08:39:47.233Z,101262.80
2024-03-16T08:42:17.335Z,101257.98
2024-03-16T08:44:47.397Z,101258.08
2024-03-16T08:47:17.473Z,101258.94
2024-03-16T08:49:48.027Z,101260.02
2024-03-16T08:52:18.251Z,101250.46
2024-03-16T08:54:48.844Z,101254.27
2024-03-16T08:57:19.104Z,101244.61
2024-03-16T08:59:49.057Z,101247.73
2024-03-16T09:02:21.177Z,101243.03
2024-03-16T09:04:52.800Z,101238.28
2024-03-16T09:07:22.926Z,101235.69
2024-03-16T09:09:54.430Z,101231.02
2024-03-16T09:12:24.954Z,101231.30
2024-03-16T09:14:55.207Z,101227.56
2024-03-16T09:17:25.956Z,101231.36
2024-03-16T09:19:58.882Z,101226.20
2024-03-16T09:22:29.892Z,101221.17
2024-03-16T09:24:59.937Z,101218.91
2024-03-16T09:27:31.736Z,101220.58
2024-03-16T09:30:02.492Z,101221.63
2024-03-16T09:32:32.682Z,101218.15
2024-03-16T09:35:02.851Z,101221.81
2024-03-16T09:37:32.979Z,101219.59
2024-03-16T09:40:03.126Z,101218.58
2024-03-16T09:42:34.170Z,101213.80
